sensor_id;sensor_type;location;lat;lon;timestamp;P1;durP1;ratioP1;P2;durP2;ratioP2
44204;SDS011;30163;42.698;23.344;2023-02-01T00:00:29;14.25;;;9.15;;
44204;SDS011;30163;42.698;23.344;2023-02-01T00:02:54;15.45;;;9.50;;
44204;SDS011;30163;42.698;23.344;2023-02-01T00:05:20;10.50;;;7.38;;
44204;SDS011;30163;42.698;23.344;2023-02-01T00:07:46;19.95;;;10.30;;
44204;SDS011;30163;42.698;23.344;2023-02-01T00:10:13;14.85;;;7.70;;
44204;SDS011;30163;42.698;23.344;2023-02-01T00:12:38;18.98;;;9.30;;
44204;SDS011;30163;42.698;23.344;2023-02-01T00:15:04;9.90;;;7.38;;
44204;SDS011;30163;42.698;23.344;2023-02-01T00:17:30;17.50;;;10.15;;
44204;SDS011;30163;42.698;23.344;2023-02-01T00:19:55;15.38;;;8.10;;
44204;SDS011;30163;42.698;23.344;2023-02-01T00:22:20;15.68;;;8.85;;
44204;SDS011;30163;42.698;23.344;2023-02-01T00:24:46;11.82;;;8.60;;
44204;SDS011;30163;42.698;23.344;2023-02-01T00:27:11;15.90;;;9.48;;
44204;SDS011;30163;42.698;23.344;2023-02-01T00:29:42;11.23;;;7.63;;
44204;SDS011;30163;42.698;23.344;2023-02-01T00:32:08;18.25;;;9.02;;
44204;SDS011;30163;42.698;23.344;2023-02-01T00:34:33;17.42;;;8.70;;
44204;SDS011;30163;42.698;23.344;2023-02-01T00:36:59;12.85;;;8.00;;
44204;SDS011;30163;42.698;23.344;2023-02-01T00:39:25;15.15;;;8.68;;
44204;SDS011;30163;42.698;23.344;2023-02-01T00:41:50;13.00;;;8.68;;
44204;SDS011;30163;42.698;23.344;2023-02-01T00:44:16;17.35;;;9.77;;
44204;SDS011;30163;42.698;23.344;2023-02-01T00:46:41;18.25;;;8.75;;
44204;SDS011;30163;42.698;23.344;2023-02-01T00:49:07;15.73;;;9.15;;
44204;SDS011;30163;42.698;23.344;2023-02-01T00:51:34;24.10;;;9.55;;
44204;SDS011;30163;42.698;23.344;2023-02-01T00:53:59;16.95;;;9.40;;
44204;SDS011;30163;42.698;23.344;2023-02-01T00:56:25;14.45;;;9.32;;
44204;SDS011;30163;42.698;23.344;2023-02-01T00:58:52;16.52;;;9.18;;
44204;SDS011;30163;42.698;23.344;2023-02-01T01:01:19;17.65;;;8.38;;
44204;SDS011;30163;42.698;23.344;2023-02-01T01:03:47;20.40;;;9.18;;
44204;SDS011;30163;42.698;23.344;2023-02-01T01:06:16;14.48;;;8.32;;
44204;SDS011;30163;42.698;23.344;2023-02-01T01:08:44;19.73;;;10.40;;
44204;SDS011;30163;42.698;23.344;2023-02-01T01:13:41;15.38;;;8.27;;
44204;SDS011;30163;42.698;23.344;2023-02-01T01:16:07;16.80;;;8.07;;
44204;SDS011;30163;42.698;23.344;2023-02-01T01:18:34;14.15;;;7.68;;
44204;SDS011;30163;42.698;23.344;2023-02-01T01:21:00;10.80;;;6.88;;
44204;SDS011;30163;42.698;23.344;2023-02-01T01:23:26;11.38;;;7.65;;
44204;SDS011;30163;42.698;23.344;2023-02-01T01:25:52;10.95;;;6.18;;
44204;SDS011;30163;42.698;23.344;2023-02-01T01:28:18;10.65;;;6.80;;
44204;SDS011;30163;42.698;23.344;2023-02-01T01:30:43;12.63;;;6.72;;
44204;SDS011;30163;42.698;23.344;2023-02-01T01:33:09;15.93;;;7.43;;
44204;SDS011;30163;42.698;23.344;2023-02-01T01:35:34;22.20;;;7.18;;
44204;SDS011;30163;42.698;23.344;2023-02-01T01:38:00;10.85;;;6.43;;
44204;SDS011;30163;42.698;23.344;2023-02-01T01:40:26;9.55;;;5.70;;
44204;SDS011;30163;42.698;23.344;2023-02-01T01:42:52;10.77;;;5.10;;
44204;SDS011;30163;42.698;23.344;2023-02-01T01:47:58;13.63;;;7.30;;
44204;SDS011;30163;42.698;23.344;2023-02-01T01:50:27;11.85;;;6.57;;
44204;SDS011;30163;42.698;23.344;2023-02-01T01:52:56;11.02;;;5.95;;
44204;SDS011;30163;42.698;23.344;2023-02-01T01:55:24;8.60;;;6.22;;
44204;SDS011;30163;42.698;23.344;2023-02-01T01:57:51;23.42;;;7.47;;
44204;SDS011;30163;42.698;23.344;2023-02-01T02:00:21;11.23;;;6.55;;
44204;SDS011;30163;42.698;23.344;2023-02-01T02:02:47;12.18;;;4.93;;
44204;SDS011;30163;42.698;23.344;2023-02-01T02:05:17;6.85;;;5.20;;
44204;SDS011;30163;42.698;23.344;2023-02-01T02:07:43;12.88;;;5.55;;
44204;SDS011;30163;42.698;23.344;2023-02-01T02:10:11;9.82;;;6.15;;
44204;SDS011;30163;42.698;23.344;2023-02-01T02:12:41;9.77;;;6.10;;
44204;SDS011;30163;42.698;23.344;2023-02-01T02:15:08;13.80;;;5.85;;
44204;SDS011;30163;42.698;23.344;2023-02-01T02:18:18;10.40;;;6.13;;
44204;SDS011;30163;42.698;23.344;2023-02-01T02:29:46;6.50;;;4.80;;
44204;SDS011;30163;42.698;23.344;2023-02-01T02:32:10;10.65;;;5.63;;
44204;SDS011;30163;42.698;23.344;2023-02-01T02:34:57;11.70;;;6.18;;
44204;SDS011;30163;42.698;23.344;2023-02-01T02:41:34;7.38;;;5.15;;
44204;SDS011;30163;42.698;23.344;2023-02-01T02:44:21;8.18;;;5.50;;
44204;SDS011;30163;42.698;23.344;2023-02-01T02:47:13;9.77;;;6.70;;
44204;SDS011;30163;42.698;23.344;2023-02-01T02:49:52;10.63;;;5.15;;
44204;SDS011;30163;42.698;23.344;2023-02-01T02:52:42;13.65;;;5.45;;
44204;SDS011;30163;42.698;23.344;2023-02-01T02:55:48;13.88;;;5.95;;
44204;SDS011;30163;42.698;23.344;2023-02-01T02:58:15;12.52;;;6.43;;
44204;SDS011;30163;42.698;23.344;2023-02-01T03:00:59;11.63;;;5.45;;
44204;SDS011;30163;42.698;23.344;2023-02-01T03:03:45;9.50;;;5.90;;
44204;SDS011;30163;42.698;23.344;2023-02-01T03:06:33;12.65;;;5.50;;
44204;SDS011;30163;42.698;23.344;2023-02-01T03:08:59;14.40;;;6.00;;
44204;SDS011;30163;42.698;23.344;2023-02-01T03:11:27;12.05;;;4.85;;
44204;SDS011;30163;42.698;23.344;2023-02-01T03:14:13;6.13;;;3.78;;
44204;SDS011;30163;42.698;23.344;2023-02-01T03:16:42;9.50;;;4.45;;
44204;SDS011;30163;42.698;23.344;2023-02-01T03:19:30;9.55;;;4.75;;
44204;SDS011;30163;42.698;23.344;2023-02-01T03:22:02;9.60;;;5.22;;
44204;SDS011;30163;42.698;23.344;2023-02-01T03:24:31;10.18;;;5.32;;
44204;SDS011;30163;42.698;23.344;2023-02-01T03:27:11;14.55;;;5.82;;
44204;SDS011;30163;42.698;23.344;2023-02-01T03:30:06;10.20;;;6.00;;
44204;SDS011;30163;42.698;23.344;2023-02-01T03:32:32;13.18;;;5.95;;
44204;SDS011;30163;42.698;23.344;2023-02-01T03:35:18;11.35;;;5.28;;
44204;SDS011;30163;42.698;23.344;2023-02-01T03:41:16;8.98;;;5.13;;
44204;SDS011;30163;42.698;23.344;2023-02-01T03:44:08;14.38;;;5.45;;
44204;SDS011;30163;42.698;23.344;2023-02-01T03:46:47;11.82;;;5.55;;
44204;SDS011;30163;42.698;23.344;2023-02-01T03:52:03;11.48;;;5.55;;
44204;SDS011;30163;42.698;23.344;2023-02-01T03:54:31;14.57;;;4.75;;
44204;SDS011;30163;42.698;23.344;2023-02-01T03:56:59;11.00;;;6.25;;
44204;SDS011;30163;42.698;23.344;2023-02-01T03:59:25;7.95;;;4.40;;
44204;SDS011;30163;42.698;23.344;2023-02-01T04:01:51;7.47;;;5.45;;
44204;SDS011;30163;42.698;23.344;2023-02-01T04:04:17;6.35;;;3.92;;
44204;SDS011;30163;42.698;23.344;2023-02-01T04:06:49;12.20;;;6.13;;
44204;SDS011;30163;42.698;23.344;2023-02-01T04:09:15;10.98;;;4.00;;
44204;SDS011;30163;42.698;23.344;2023-02-01T04:11:41;18.52;;;6.38;;
44204;SDS011;30163;42.698;23.344;2023-02-01T04:14:06;12.55;;;5.93;;
44204;SDS011;30163;42.698;23.344;2023-02-01T04:16:32;13.05;;;5.15;;
44204;SDS011;30163;42.698;23.344;2023-02-01T04:18:58;10.57;;;4.88;;
44204;SDS011;30163;42.698;23.344;2023-02-01T04:21:24;8.07;;;4.43;;
44204;SDS011;30163;42.698;23.344;2023-02-01T04:23:50;13.25;;;5.15;;
44204;SDS011;30163;42.698;23.344;2023-02-01T04:26:16;9.93;;;5.07;;
44204;SDS011;30163;42.698;23.344;2023-02-01T04:28:42;10.48;;;5.78;;
44204;SDS011;30163;42.698;23.344;2023-02-01T04:31:07;15.27;;;5.80;;
44204;SDS011;30163;42.698;23.344;2023-02-01T04:33:32;7.25;;;5.15;;
44204;SDS011;30163;42.698;23.344;2023-02-01T04:35:58;9.07;;;5.93;;
44204;SDS011;30163;42.698;23.344;2023-02-01T04:38:24;9.55;;;3.88;;
44204;SDS011;30163;42.698;23.344;2023-02-01T04:40:49;7.60;;;4.45;;
44204;SDS011;30163;42.698;23.344;2023-02-01T04:43:15;15.48;;;6.97;;
44204;SDS011;30163;42.698;23.344;2023-02-01T04:45:41;10.93;;;4.35;;
44204;SDS011;30163;42.698;23.344;2023-02-01T04:48:06;12.02;;;5.68;;
44204;SDS011;30163;42.698;23.344;2023-02-01T04:50:32;6.32;;;4.88;;
44204;SDS011;30163;42.698;23.344;2023-02-01T04:52:57;10.90;;;5.45;;
44204;SDS011;30163;42.698;23.344;2023-02-01T04:55:23;14.95;;;5.47;;
44204;SDS011;30163;42.698;23.344;2023-02-01T04:57:48;11.23;;;6.35;;
44204;SDS011;30163;42.698;23.344;2023-02-01T05:00:13;17.33;;;6.22;;
44204;SDS011;30163;42.698;23.344;2023-02-01T05:02:39;18.75;;;6.72;;
44204;SDS011;30163;42.698;23.344;2023-02-01T05:05:05;12.98;;;4.90;;
44204;SDS011;30163;42.698;23.344;2023-02-01T05:07:30;13.10;;;5.70;;
44204;SDS011;30163;42.698;23.344;2023-02-01T05:09:56;12.65;;;5.68;;
44204;SDS011;30163;42.698;23.344;2023-02-01T05:12:21;24.70;;;7.68;;
44204;SDS011;30163;42.698;23.344;2023-02-01T05:15:05;13.50;;;7.53;;
44204;SDS011;30163;42.698;23.344;2023-02-01T05:17:31;10.18;;;5.57;;
44204;SDS011;30163;42.698;23.344;2023-02-01T05:19:56;14.05;;;7.72;;
44204;SDS011;30163;42.698;23.344;2023-02-01T05:22:22;9.75;;;5.80;;
44204;SDS011;30163;42.698;23.344;2023-02-01T05:24:47;10.38;;;5.72;;
44204;SDS011;30163;42.698;23.344;2023-02-01T05:27:12;14.90;;;5.40;;
44204;SDS011;30163;42.698;23.344;2023-02-01T05:29:38;11.63;;;5.70;;
44204;SDS011;30163;42.698;23.344;2023-02-01T05:32:03;9.68;;;5.82;;
44204;SDS011;30163;42.698;23.344;2023-02-01T05:34:29;11.65;;;4.53;;
44204;SDS011;30163;42.698;23.344;2023-02-01T05:36:54;10.25;;;5.93;;
44204;SDS011;30163;42.698;23.344;2023-02-01T05:39:20;12.15;;;5.63;;
44204;SDS011;30163;42.698;23.344;2023-02-01T05:41:45;19.67;;;6.68;;
44204;SDS011;30163;42.698;23.344;2023-02-01T05:44:11;9.68;;;6.32;;
44204;SDS011;30163;42.698;23.344;2023-02-01T05:46:36;13.95;;;6.43;;
44204;SDS011;30163;42.698;23.344;2023-02-01T05:49:02;20.02;;;6.50;;
44204;SDS011;30163;42.698;23.344;2023-02-01T05:51:28;12.77;;;7.63;;
44204;SDS011;30163;42.698;23.344;2023-02-01T05:53:54;13.90;;;6.15;;
44204;SDS011;30163;42.698;23.344;2023-02-01T05:56:19;14.82;;;6.43;;
44204;SDS011;30163;42.698;23.344;2023-02-01T05:58:45;14.65;;;7.20;;
44204;SDS011;30163;42.698;23.344;2023-02-01T06:01:10;19.83;;;6.57;;
44204;SDS011;30163;42.698;23.344;2023-02-01T06:03:36;14.65;;;7.90;;
44204;SDS011;30163;42.698;23.344;2023-02-01T06:06:02;11.55;;;6.25;;
44204;SDS011;30163;42.698;23.344;2023-02-01T06:08:29;16.30;;;6.57;;
44204;SDS011;30163;42.698;23.344;2023-02-01T06:11:02;23.02;;;8.18;;
44204;SDS011;30163;42.698;23.344;2023-02-01T06:13:28;13.30;;;6.47;;
44204;SDS011;30163;42.698;23.344;2023-02-01T06:15:54;8.88;;;5.78;;
44204;SDS011;30163;42.698;23.344;2023-02-01T06:18:20;22.33;;;5.78;;
44204;SDS011;30163;42.698;23.344;2023-02-01T06:20:51;15.88;;;7.97;;
44204;SDS011;30163;42.698;23.344;2023-02-01T06:23:17;21.83;;;5.88;;
44204;SDS011;30163;42.698;23.344;2023-02-01T06:25:42;12.68;;;6.10;;
44204;SDS011;30163;42.698;23.344;2023-02-01T06:28:08;12.60;;;5.78;;
44204;SDS011;30163;42.698;23.344;2023-02-01T06:30:33;15.32;;;5.65;;
44204;SDS011;30163;42.698;23.344;2023-02-01T06:32:59;10.57;;;6.15;;
44204;SDS011;30163;42.698;23.344;2023-02-01T06:35:24;11.70;;;5.35;;
44204;SDS011;30163;42.698;23.344;2023-02-01T06:37:51;25.23;;;4.28;;
44204;SDS011;30163;42.698;23.344;2023-02-01T06:40:16;10.30;;;4.25;;
44204;SDS011;30163;42.698;23.344;2023-02-01T06:42:42;18.58;;;5.38;;
44204;SDS011;30163;42.698;23.344;2023-02-01T06:45:07;11.70;;;5.13;;
44204;SDS011;30163;42.698;23.344;2023-02-01T06:47:33;9.48;;;4.30;;
44204;SDS011;30163;42.698;23.344;2023-02-01T06:49:58;10.00;;;5.85;;
44204;SDS011;30163;42.698;23.344;2023-02-01T06:52:24;25.65;;;5.40;;
44204;SDS011;30163;42.698;23.344;2023-02-01T06:54:49;17.40;;;5.80;;
44204;SDS011;30163;42.698;23.344;2023-02-01T06:57:15;23.13;;;5.07;;
44204;SDS011;30163;42.698;23.344;2023-02-01T06:59:40;19.50;;;5.82;;
44204;SDS011;30163;42.698;23.344;2023-02-01T07:02:08;9.30;;;4.53;;
44204;SDS011;30163;42.698;23.344;2023-02-01T07:04:35;12.63;;;5.07;;
44204;SDS011;30163;42.698;23.344;2023-02-01T07:07:01;12.18;;;5.68;;
44204;SDS011;30163;42.698;23.344;2023-02-01T07:09:26;11.35;;;4.97;;
44204;SDS011;30163;42.698;23.344;2023-02-01T07:11:51;10.27;;;4.60;;
44204;SDS011;30163;42.698;23.344;2023-02-01T07:14:17;11.98;;;5.70;;
44204;SDS011;30163;42.698;23.344;2023-02-01T07:16:42;19.92;;;5.28;;
44204;SDS011;30163;42.698;23.344;2023-02-01T07:19:08;11.98;;;6.10;;
44204;SDS011;30163;42.698;23.344;2023-02-01T07:21:33;10.10;;;4.50;;
44204;SDS011;30163;42.698;23.344;2023-02-01T07:23:58;14.73;;;5.97;;
44204;SDS011;30163;42.698;23.344;2023-02-01T07:26:24;22.27;;;6.43;;
44204;SDS011;30163;42.698;23.344;2023-02-01T07:28:49;9.35;;;5.07;;
44204;SDS011;30163;42.698;23.344;2023-02-01T07:31:16;23.20;;;6.30;;
44204;SDS011;30163;42.698;23.344;2023-02-01T07:33:49;16.48;;;6.47;;
44204;SDS011;30163;42.698;23.344;2023-02-01T07:36:18;12.63;;;4.90;;
44204;SDS011;30163;42.698;23.344;2023-02-01T07:38:44;7.85;;;4.15;;
44204;SDS011;30163;42.698;23.344;2023-02-01T07:41:12;10.25;;;6.05;;
44204;SDS011;30163;42.698;23.344;2023-02-01T07:43:37;19.05;;;5.75;;
44204;SDS011;30163;42.698;23.344;2023-02-01T07:46:03;16.38;;;6.22;;
44204;SDS011;30163;42.698;23.344;2023-02-01T07:48:29;7.82;;;4.72;;
44204;SDS011;30163;42.698;23.344;2023-02-01T07:53:28;13.75;;;6.32;;
44204;SDS011;30163;42.698;23.344;2023-02-01T07:55:54;7.55;;;5.22;;
44204;SDS011;30163;42.698;23.344;2023-02-01T07:58:21;9.25;;;4.45;;
44204;SDS011;30163;42.698;23.344;2023-02-01T08:00:47;6.18;;;4.28;;
44204;SDS011;30163;42.698;23.344;2023-02-01T08:03:31;12.88;;;5.60;;
44204;SDS011;30163;42.698;23.344;2023-02-01T08:05:56;14.48;;;5.75;;
44204;SDS011;30163;42.698;23.344;2023-02-01T08:08:22;19.13;;;5.65;;
44204;SDS011;30163;42.698;23.344;2023-02-01T08:10:47;22.98;;;6.57;;
44204;SDS011;30163;42.698;23.344;2023-02-01T08:13:13;8.50;;;3.63;;
44204;SDS011;30163;42.698;23.344;2023-02-01T08:15:38;18.17;;;5.85;;
44204;SDS011;30163;42.698;23.344;2023-02-01T08:18:04;17.58;;;4.45;;
44204;SDS011;30163;42.698;23.344;2023-02-01T08:20:29;15.20;;;5.95;;
44204;SDS011;30163;42.698;23.344;2023-02-01T08:22:55;16.85;;;7.10;;
44204;SDS011;30163;42.698;23.344;2023-02-01T08:25:20;15.05;;;6.38;;
44204;SDS011;30163;42.698;23.344;2023-02-01T08:27:46;20.27;;;5.95;;
44204;SDS011;30163;42.698;23.344;2023-02-01T08:30:12;14.10;;;5.15;;
44204;SDS011;30163;42.698;23.344;2023-02-01T08:32:38;14.00;;;5.28;;
44204;SDS011;30163;42.698;23.344;2023-02-01T08:35:04;14.00;;;4.07;;
44204;SDS011;30163;42.698;23.344;2023-02-01T08:37:30;16.05;;;5.50;;
44204;SDS011;30163;42.698;23.344;2023-02-01T08:39:55;15.45;;;5.78;;
44204;SDS011;30163;42.698;23.344;2023-02-01T08:42:21;15.38;;;5.68;;
44204;SDS011;30163;42.698;23.344;2023-02-01T08:45:05;10.65;;;5.72;;
44204;SDS011;30163;42.698;23.344;2023-02-01T08:47:33;14.80;;;4.00;;
44204;SDS011;30163;42.698;23.344;2023-02-01T08:49:59;17.90;;;5.78;;
44204;SDS011;30163;42.698;23.344;2023-02-01T08:52:24;17.25;;;5.78;;
44204;SDS011;30163;42.698;23.344;2023-02-01T08:54:50;9.77;;;4.30;;
44204;SDS011;30163;42.698;23.344;2023-02-01T08:57:16;10.57;;;5.63;;
44204;SDS011;30163;42.698;23.344;2023-02-01T08:59:42;11.93;;;4.68;;
44204;SDS011;30163;42.698;23.344;2023-02-01T09:02:11;14.48;;;4.45;;
44204;SDS011;30163;42.698;23.344;2023-02-01T09:04:37;17.13;;;4.85;;
44204;SDS011;30163;42.698;23.344;2023-02-01T09:07:03;17.42;;;4.90;;
44204;SDS011;30163;42.698;23.344;2023-02-01T09:09:28;8.07;;;4.57;;
44204;SDS011;30163;42.698;23.344;2023-02-01T09:11:53;15.05;;;5.05;;
44204;SDS011;30163;42.698;23.344;2023-02-01T09:14:19;15.60;;;5.97;;
44204;SDS011;30163;42.698;23.344;2023-02-01T09:16:44;12.10;;;4.50;;
44204;SDS011;30163;42.698;23.344;2023-02-01T09:19:10;8.77;;;4.07;;
44204;SDS011;30163;42.698;23.344;2023-02-01T09:21:35;9.20;;;4.30;;
44204;SDS011;30163;42.698;23.344;2023-02-01T09:24:01;15.73;;;4.78;;
44204;SDS011;30163;42.698;23.344;2023-02-01T09:26:27;9.77;;;3.83;;
44204;SDS011;30163;42.698;23.344;2023-02-01T09:28:52;9.63;;;4.03;;
44204;SDS011;30163;42.698;23.344;2023-02-01T09:31:18;9.43;;;3.70;;
44204;SDS011;30163;42.698;23.344;2023-02-01T09:33:43;16.95;;;4.00;;
44204;SDS011;30163;42.698;23.344;2023-02-01T09:36:09;10.30;;;4.15;;
44204;SDS011;30163;42.698;23.344;2023-02-01T09:38:34;9.15;;;4.95;;
44204;SDS011;30163;42.698;23.344;2023-02-01T09:41:00;11.43;;;4.22;;
44204;SDS011;30163;42.698;23.344;2023-02-01T09:43:32;16.52;;;5.55;;
44204;SDS011;30163;42.698;23.344;2023-02-01T09:46:11;8.88;;;3.42;;
44204;SDS011;30163;42.698;23.344;2023-02-01T09:48:51;11.88;;;4.57;;
44204;SDS011;30163;42.698;23.344;2023-02-01T09:51:20;13.05;;;4.35;;
44204;SDS011;30163;42.698;23.344;2023-02-01T09:53:55;11.05;;;5.13;;
44204;SDS011;30163;42.698;23.344;2023-02-01T09:56:26;14.18;;;5.28;;
44204;SDS011;30163;42.698;23.344;2023-02-01T10:01:26;10.45;;;4.05;;
44204;SDS011;30163;42.698;23.344;2023-02-01T10:03:53;12.25;;;4.70;;
44204;SDS011;30163;42.698;23.344;2023-02-01T10:12:19;9.95;;;3.70;;
44204;SDS011;30163;42.698;23.344;2023-02-01T10:22:40;12.75;;;5.28;;
44204;SDS011;30163;42.698;23.344;2023-02-01T10:25:13;12.75;;;4.00;;
44204;SDS011;30163;42.698;23.344;2023-02-01T10:27:50;11.68;;;3.85;;
44204;SDS011;30163;42.698;23.344;2023-02-01T10:32:45;9.27;;;3.75;;
44204;SDS011;30163;42.698;23.344;2023-02-01T10:35:17;8.35;;;4.18;;
44204;SDS011;30163;42.698;23.344;2023-02-01T10:37:46;8.40;;;4.32;;
44204;SDS011;30163;42.698;23.344;2023-02-01T10:40:18;6.30;;;3.38;;
44204;SDS011;30163;42.698;23.344;2023-02-01T10:42:46;6.07;;;3.42;;
44204;SDS011;30163;42.698;23.344;2023-02-01T10:45:15;6.70;;;3.00;;
44204;SDS011;30163;42.698;23.344;2023-02-01T10:47:43;14.73;;;4.93;;
44204;SDS011;30163;42.698;23.344;2023-02-01T10:52:59;7.28;;;3.65;;
44204;SDS011;30163;42.698;23.344;2023-02-01T10:58:07;7.20;;;2.97;;
44204;SDS011;30163;42.698;23.344;2023-02-01T11:00:41;8.35;;;3.60;;
44204;SDS011;30163;42.698;23.344;2023-02-01T11:06:00;6.32;;;3.35;;
44204;SDS011;30163;42.698;23.344;2023-02-01T11:08:47;6.88;;;3.85;;
44204;SDS011;30163;42.698;23.344;2023-02-01T11:11:15;7.45;;;3.50;;
44204;SDS011;30163;42.698;23.344;2023-02-01T11:13:40;9.68;;;3.50;;
44204;SDS011;30163;42.698;23.344;2023-02-01T11:16:06;12.93;;;4.00;;
44204;SDS011;30163;42.698;23.344;2023-02-01T11:18:37;8.75;;;2.95;;
44204;SDS011;30163;42.698;23.344;2023-02-01T11:21:04;6.22;;;3.05;;
44204;SDS011;30163;42.698;23.344;2023-02-01T11:23:30;8.05;;;2.90;;
44204;SDS011;30163;42.698;23.344;2023-02-01T11:26:10;6.75;;;3.08;;
44204;SDS011;30163;42.698;23.344;2023-02-01T11:28:38;4.85;;;2.78;;
44204;SDS011;30163;42.698;23.344;2023-02-01T11:31:08;20.08;;;3.85;;
44204;SDS011;30163;42.698;23.344;2023-02-01T11:33:38;7.30;;;2.92;;
44204;SDS011;30163;42.698;23.344;2023-02-01T11:36:12;9.48;;;4.00;;
44204;SDS011;30163;42.698;23.344;2023-02-01T11:39:26;8.60;;;2.92;;
44204;SDS011;30163;42.698;23.344;2023-02-01T11:41:33;4.93;;;3.08;;
44204;SDS011;30163;42.698;23.344;2023-02-01T11:44:00;11.63;;;3.67;;
44204;SDS011;30163;42.698;23.344;2023-02-01T11:46:30;7.40;;;3.63;;
44204;SDS011;30163;42.698;23.344;2023-02-01T11:49:13;6.18;;;2.80;;
44204;SDS011;30163;42.698;23.344;2023-02-01T11:54:40;13.95;;;4.28;;
44204;SDS011;30163;42.698;23.344;2023-02-01T12:07:34;10.77;;;3.17;;
44204;SDS011;30163;42.698;23.344;2023-02-01T12:24:35;12.45;;;3.50;;
44204;SDS011;30163;42.698;23.344;2023-02-01T12:43:38;7.22;;;3.10;;
44204;SDS011;30163;42.698;23.344;2023-02-01T12:46:12;4.55;;;2.80;;
44204;SDS011;30163;42.698;23.344;2023-02-01T12:48:58;9.32;;;3.30;;
44204;SDS011;30163;42.698;23.344;2023-02-01T12:51:46;5.85;;;3.28;;
44204;SDS011;30163;42.698;23.344;2023-02-01T12:54:31;5.80;;;3.10;;
44204;SDS011;30163;42.698;23.344;2023-02-01T12:57:01;6.35;;;3.20;;
44204;SDS011;30163;42.698;23.344;2023-02-01T12:59:41;8.10;;;4.15;;
44204;SDS011;30163;42.698;23.344;2023-02-01T13:02:19;7.03;;;2.80;;
44204;SDS011;30163;42.698;23.344;2023-02-01T13:05:04;6.72;;;2.80;;
44204;SDS011;30163;42.698;23.344;2023-02-01T13:07:47;10.63;;;3.47;;
44204;SDS011;30163;42.698;23.344;2023-02-01T13:18:56;5.30;;;2.95;;
44204;SDS011;30163;42.698;23.344;2023-02-01T13:21:26;19.15;;;4.35;;
44204;SDS011;30163;42.698;23.344;2023-02-01T13:23:55;4.13;;;2.35;;
44204;SDS011;30163;42.698;23.344;2023-02-01T13:26:21;16.60;;;3.70;;
44204;SDS011;30163;42.698;23.344;2023-02-01T13:36:28;17.27;;;3.38;;
44204;SDS011;30163;42.698;23.344;2023-02-01T13:39:32;8.73;;;3.47;;
44204;SDS011;30163;42.698;23.344;2023-02-01T13:42:01;4.10;;;2.55;;
44204;SDS011;30163;42.698;23.344;2023-02-01T13:44:38;5.63;;;2.90;;
44204;SDS011;30163;42.698;23.344;2023-02-01T13:47:15;9.77;;;3.95;;
44204;SDS011;30163;42.698;23.344;2023-02-01T13:49:46;11.30;;;3.55;;
44204;SDS011;30163;42.698;23.344;2023-02-01T13:52:23;3.40;;;1.92;;
44204;SDS011;30163;42.698;23.344;2023-02-01T13:55:00;11.57;;;3.45;;
44204;SDS011;30163;42.698;23.344;2023-02-01T13:57:48;11.02;;;3.70;;
44204;SDS011;30163;42.698;23.344;2023-02-01T14:00:25;4.45;;;2.47;;
44204;SDS011;30163;42.698;23.344;2023-02-01T14:13:27;7.63;;;3.10;;
44204;SDS011;30163;42.698;23.344;2023-02-01T14:26:21;4.85;;;3.28;;
44204;SDS011;30163;42.698;23.344;2023-02-01T14:32:18;15.23;;;3.60;;
44204;SDS011;30163;42.698;23.344;2023-02-01T14:42:53;8.70;;;3.95;;
44204;SDS011;30163;42.698;23.344;2023-02-01T14:47:48;5.68;;;3.45;;
44204;SDS011;30163;42.698;23.344;2023-02-01T14:53:03;6.82;;;4.25;;
44204;SDS011;30163;42.698;23.344;2023-02-01T14:58:05;4.35;;;2.67;;
44204;SDS011;30163;42.698;23.344;2023-02-01T15:00:35;6.95;;;3.78;;
44204;SDS011;30163;42.698;23.344;2023-02-01T15:05:56;8.38;;;4.05;;
44204;SDS011;30163;42.698;23.344;2023-02-01T15:08:44;10.82;;;4.50;;
44204;SDS011;30163;42.698;23.344;2023-02-01T15:11:11;10.60;;;5.00;;
44204;SDS011;30163;42.698;23.344;2023-02-01T15:13:39;8.38;;;4.63;;
44204;SDS011;30163;42.698;23.344;2023-02-01T15:21:03;10.20;;;4.63;;
44204;SDS011;30163;42.698;23.344;2023-02-01T15:23:30;13.85;;;4.90;;
44204;SDS011;30163;42.698;23.344;2023-02-01T15:25:56;8.77;;;4.65;;
44204;SDS011;30163;42.698;23.344;2023-02-01T15:28:22;19.05;;;6.65;;
44204;SDS011;30163;42.698;23.344;2023-02-01T15:31:06;17.65;;;6.75;;
44204;SDS011;30163;42.698;23.344;2023-02-01T15:33:31;10.93;;;6.18;;
44204;SDS011;30163;42.698;23.344;2023-02-01T15:41:04;16.30;;;7.85;;
44204;SDS011;30163;42.698;23.344;2023-02-01T15:43:33;16.55;;;7.88;;
44204;SDS011;30163;42.698;23.344;2023-02-01T15:46:02;21.20;;;8.30;;
44204;SDS011;30163;42.698;23.344;2023-02-01T15:48:49;32.22;;;9.70;;
44204;SDS011;30163;42.698;23.344;2023-02-01T15:51:20;21.58;;;8.63;;
44204;SDS011;30163;42.698;23.344;2023-02-01T15:54:01;23.92;;;9.25;;
44204;SDS011;30163;42.698;23.344;2023-02-01T15:56:29;28.45;;;10.82;;
44204;SDS011;30163;42.698;23.344;2023-02-01T15:59:00;36.90;;;11.70;;
44204;SDS011;30163;42.698;23.344;2023-02-01T16:01:27;28.40;;;9.82;;
44204;SDS011;30163;42.698;23.344;2023-02-01T16:06:52;31.75;;;11.93;;
44204;SDS011;30163;42.698;23.344;2023-02-01T16:09:24;21.48;;;9.02;;
44204;SDS011;30163;42.698;23.344;2023-02-01T16:14:19;23.25;;;9.40;;
44204;SDS011;30163;42.698;23.344;2023-02-01T16:16:45;19.50;;;8.50;;
44204;SDS011;30163;42.698;23.344;2023-02-01T16:19:11;22.35;;;7.95;;
44204;SDS011;30163;42.698;23.344;2023-02-01T16:21:36;31.50;;;8.38;;
44204;SDS011;30163;42.698;23.344;2023-02-01T16:24:02;16.85;;;7.05;;
44204;SDS011;30163;42.698;23.344;2023-02-01T16:26:29;18.60;;;8.55;;
44204;SDS011;30163;42.698;23.344;2023-02-01T16:28:56;14.95;;;6.75;;
44204;SDS011;30163;42.698;23.344;2023-02-01T16:31:25;15.20;;;6.85;;
44204;SDS011;30163;42.698;23.344;2023-02-01T16:33:52;11.15;;;5.05;;
44204;SDS011;30163;42.698;23.344;2023-02-01T16:36:18;15.82;;;6.57;;
44204;SDS011;30163;42.698;23.344;2023-02-01T16:38:44;11.48;;;5.15;;
44204;SDS011;30163;42.698;23.344;2023-02-01T16:41:15;14.50;;;5.80;;
44204;SDS011;30163;42.698;23.344;2023-02-01T16:43:42;18.30;;;6.03;;
44204;SDS011;30163;42.698;23.344;2023-02-01T16:46:16;15.73;;;7.40;;
44204;SDS011;30163;42.698;23.344;2023-02-01T16:48:45;16.63;;;6.80;;
44204;SDS011;30163;42.698;23.344;2023-02-01T16:51:13;21.35;;;6.00;;
44204;SDS011;30163;42.698;23.344;2023-02-01T16:53:41;22.23;;;10.57;;
44204;SDS011;30163;42.698;23.344;2023-02-01T16:56:20;18.83;;;8.80;;
44204;SDS011;30163;42.698;23.344;2023-02-01T16:58:46;25.48;;;8.75;;
44204;SDS011;30163;42.698;23.344;2023-02-01T17:01:13;19.52;;;8.35;;
44204;SDS011;30163;42.698;23.344;2023-02-01T17:03:40;16.45;;;6.60;;
44204;SDS011;30163;42.698;23.344;2023-02-01T17:06:06;17.67;;;6.75;;
44204;SDS011;30163;42.698;23.344;2023-02-01T17:08:34;17.95;;;7.45;;
44204;SDS011;30163;42.698;23.344;2023-02-01T17:11:01;12.45;;;5.07;;
44204;SDS011;30163;42.698;23.344;2023-02-01T17:13:28;14.00;;;5.28;;
44204;SDS011;30163;42.698;23.344;2023-02-01T17:18:20;14.25;;;7.43;;
44204;SDS011;30163;42.698;23.344;2023-02-01T17:20:46;18.13;;;7.38;;
44204;SDS011;30163;42.698;23.344;2023-02-01T17:23:12;21.90;;;9.23;;
44204;SDS011;30163;42.698;23.344;2023-02-01T17:25:39;31.80;;;12.98;;
44204;SDS011;30163;42.698;23.344;2023-02-01T17:28:05;27.02;;;10.43;;
44204;SDS011;30163;42.698;23.344;2023-02-01T17:30:31;26.38;;;11.88;;
44204;SDS011;30163;42.698;23.344;2023-02-01T17:32:56;37.17;;;13.88;;